EW8805 Carrion De Calatrava ES current weather conditions

sailwx.info

Wind from 061 at 1 knots gusting 1

Air temperature 22.2° C
Dewpoint 6.8° C

Last reported at 2018-Aug-21 23:00 UTC.
Time now 2018-Aug-21 23:17 UTC

Location: N 39°01' W 003°49'.
View on Google Maps.

See reports from other nearby stations

  
Tides and Currents Weather Stations Pressure Air Temp Water Temp Dewpoint Dewpoint Depression Visibility Wind Speed Wind Dir Waves Ship Positions
date/time (UTC)wind fromknots sea level pressurealtimeterstation pressurevisibilityair tempwater tempwave heightnotes
2018-Aug-21 23:00 061 1 gusting 1 22.2
2018-Aug-21 22:55 049 22.2
2018-Aug-21 22:50 049 0 gusting 1 22.8
2018-Aug-21 22:45 065 22.8
2018-Aug-21 22:40 084 23.3
2018-Aug-21 22:35 122 23.9
2018-Aug-21 22:30 093 0 gusting 2 23.9
2018-Aug-21 22:25 101 0 gusting 3 23.9
2018-Aug-21 22:20 084 2 gusting 3 23.9
2018-Aug-21 22:15 093 2 gusting 6 24.4
2018-Aug-21 22:05 093 3 gusting 6 25.0
2018-Aug-21 21:55 072 2 gusting 6 25.0
2018-Aug-21 21:50 073 3 gusting 6 25.0
2018-Aug-21 21:45 073 3 gusting 5 25.0
2018-Aug-21 21:35 071 2 gusting 6 26.1
2018-Aug-21 21:30 077 3 gusting 6 26.1
2018-Aug-21 21:25 052 3 gusting 5 26.1
2018-Aug-21 21:20 085 3 gusting 6 26.1
2018-Aug-21 21:15 082 4 gusting 6 26.1
2018-Aug-21 21:05 089 2 gusting 4 25.6
2018-Aug-21 21:00 066 2 gusting 3 25.6
2018-Aug-21 20:55 092 2 gusting 2 25.6
2018-Aug-21 20:50 084 1 gusting 2 26.1
2018-Aug-21 20:45 070 1 gusting 2 26.1
2018-Aug-21 20:40 065 1 gusting 2 26.1
2018-Aug-21 20:35 079 0 gusting 1 26.1
2018-Aug-21 20:30 082 0 gusting 1 26.1
2018-Aug-21 20:25 065 1 gusting 2 26.7
2018-Aug-21 20:20 070 1 gusting 2 26.7
2018-Aug-21 20:15 069 1 gusting 2 26.7
2018-Aug-21 20:10 067 1 gusting 2 26.7
2018-Aug-21 20:05 074 1 gusting 2 27.2
2018-Aug-21 20:00 065 1 gusting 2 27.8
2018-Aug-21 19:55 088 1 gusting 2 27.8
2018-Aug-21 19:50 093 1 gusting 3 27.8
2018-Aug-21 19:40 082 1 gusting 3 28.3
2018-Aug-21 19:35 075 1 gusting 3 28.3
2018-Aug-21 19:30 073 2 gusting 3 28.3
2018-Aug-21 19:25 066 2 gusting 3 28.3
2018-Aug-21 19:20 047 3 gusting 4 28.9
2018-Aug-21 19:10 090 3 gusting 4 28.9
2018-Aug-21 19:05 056 3 gusting 5 29.4
2018-Aug-21 18:55 070 3 gusting 5 30.0
2018-Aug-21 18:50 075 4 gusting 6 30.0
2018-Aug-21 18:40 070 4 gusting 6 30.6
2018-Aug-21 18:35 058 4 gusting 6 31.1
2018-Aug-21 18:30 056 5 gusting 6 31.1
2018-Aug-21 18:25 065 3 gusting 6 31.1
2018-Aug-21 18:20 065 5 gusting 6 31.7
2018-Aug-21 18:15 060 4 gusting 7 31.7
2018-Aug-21 18:10 061 6 gusting 8 31.7
2018-Aug-21 18:05 030 5 gusting 9 31.7
2018-Aug-21 17:55 055 5 gusting 7 32.2
2018-Aug-21 17:50 042 4 gusting 6 32.2
2018-Aug-21 17:45 072 1 gusting 5 32.2
2018-Aug-21 17:40 092 2 gusting 6 32.2
2018-Aug-21 17:30 089 5 gusting 8 32.2
2018-Aug-21 17:25 094 2 gusting 8 32.2
2018-Aug-21 17:20 068 6 gusting 8 32.2
2018-Aug-21 17:15 085 5 gusting 7 32.2
2018-Aug-21 17:10 060 6 gusting 10 32.2
2018-Aug-21 17:00 090 6 gusting 9 32.2
2018-Aug-21 16:55 046 6 gusting 8 32.2
2018-Aug-21 16:50 070 5 gusting 12 32.2
2018-Aug-21 16:45 046 4 gusting 12 32.2
2018-Aug-21 16:35 082 6 gusting 8 32.8
2018-Aug-21 16:30 125 1 gusting 6 32.2
2018-Aug-21 16:25 045 3 gusting 10 32.2
2018-Aug-21 16:20 062 6 gusting 12 32.2
2018-Aug-21 16:15 053 8 gusting 11 32.2
2018-Aug-21 16:10 056 6 gusting 12 32.2
2018-Aug-21 16:05 115 1 gusting 4 32.8
2018-Aug-21 15:55 081 6 gusting 10 32.8
2018-Aug-21 15:50 045 6 gusting 12 32.8
2018-Aug-21 15:40 342 4 gusting 8 32.8
2018-Aug-21 15:30 031 2 gusting 6 32.8
2018-Aug-21 15:25 339 4 gusting 7 32.2
2018-Aug-21 15:20 330 3 gusting 8 32.2
2018-Aug-21 15:10 066 6 gusting 10 32.2
2018-Aug-21 15:05 047 6 gusting 10 32.2
2018-Aug-21 14:55 058 2 gusting 6 32.2
2018-Aug-21 14:50 102 4 gusting 8 32.2
2018-Aug-21 14:45 050 1 gusting 6 32.2
2018-Aug-21 14:30 084 3 gusting 10 32.2
2018-Aug-21 14:25 071 6 gusting 11 31.7
2018-Aug-21 14:20 064 6 gusting 11 31.7
2018-Aug-21 14:15 076 6 gusting 12 31.7
2018-Aug-21 14:05 080 2 gusting 6 31.7
2018-Aug-21 13:35 011 6 gusting 8 31.1
2018-Aug-21 13:20 133 1 gusting 9 31.7
2018-Aug-21 13:05 159 5 gusting 10 31.7
2018-Aug-21 12:55 168 4 gusting 7 31.1
2018-Aug-21 11:55 061 3 gusting 8 30.0
2018-Aug-21 11:50 104 5 gusting 8 30.0
2018-Aug-21 11:35 276 0 gusting 7 30.6
2018-Aug-21 10:55 311 29.4
2018-Aug-21 10:40 309 1 gusting 3 28.9
2018-Aug-21 10:35 349 0 gusting 3 28.9
2018-Aug-21 10:20 007 0 gusting 2 28.9
2018-Aug-21 10:15 281 0 gusting 3 28.3
2018-Aug-21 09:45 293 1 gusting 5 27.2
2018-Aug-21 09:35 235 1 gusting 4 26.7
2018-Aug-21 09:30 249 1 gusting 4 26.1
2018-Aug-21 09:15 305 0 gusting 2 26.7
2018-Aug-21 05:50 079 17.2
2018-Aug-21 05:30 096 17.8
2018-Aug-21 05:25 096 17.8
2018-Aug-21 05:20 084 0 gusting 0 18.3
2018-Aug-21 05:15 095 18.3
2018-Aug-21 05:10 094 18.3
2018-Aug-21 05:00 092 0 gusting 2 18.9
2018-Aug-21 04:55 108 1 gusting 2 18.9
2018-Aug-21 04:50 101 1 gusting 2 18.3
2018-Aug-21 04:45 096 0 gusting 1 18.3
2018-Aug-21 04:40 101 18.3
2018-Aug-21 04:35 109 1 gusting 2 18.3
2018-Aug-21 04:30 068 0 gusting 2 18.3
2018-Aug-21 04:25 056 1 gusting 2 18.3
2018-Aug-21 04:20 077 1 gusting 1 17.8
2018-Aug-21 04:10 065 0 gusting 2 17.8
2018-Aug-21 04:05 071 1 gusting 2 17.8
2018-Aug-21 03:55 072 0 gusting 1 17.8
2018-Aug-21 03:50 065 17.8
2018-Aug-21 03:45 065 17.8
2018-Aug-21 03:40 065 17.8
2018-Aug-21 03:35 070 18.3
2018-Aug-21 03:30 081 0 gusting 0 18.3
2018-Aug-21 03:25 065 18.3
2018-Aug-21 03:20 065 18.3
2018-Aug-21 03:15 086 17.8
2018-Aug-21 03:10 078 17.8
2018-Aug-21 03:00 056 18.3
2018-Aug-21 02:55 051 17.8
2018-Aug-21 02:50 311 17.8
2018-Aug-21 02:45 311 17.8
2018-Aug-21 02:40 295 0 gusting 2 18.3
2018-Aug-21 02:30 106 18.3
2018-Aug-21 02:25 290 18.3
2018-Aug-21 02:20 311 18.9
2018-Aug-21 02:15 075 18.9
2018-Aug-21 02:10 075 19.4
2018-Aug-21 02:05 075 19.4
2018-Aug-21 01:55 065 19.4
2018-Aug-21 01:50 068 1 gusting 1 19.4
2018-Aug-21 01:45 073 0 gusting 1 19.4
2018-Aug-21 01:40 051 19.4
2018-Aug-21 01:35 095 19.4
2018-Aug-21 01:30 041 19.4
2018-Aug-21 01:25 017 19.4
2018-Aug-21 01:20 358 0 gusting 2 19.4
2018-Aug-21 01:10 054 4 gusting 5 20.0
2018-Aug-21 01:05 047 19.4
2018-Aug-21 01:00 020 18.9
2018-Aug-21 00:55 291 18.9
2018-Aug-21 00:50 253 18.9
2018-Aug-21 00:45 273 18.9
2018-Aug-21 00:40 280 19.4
2018-Aug-21 00:30 282 19.4
2018-Aug-21 00:25 336 20.0
2018-Aug-21 00:20 001 20.0
2018-Aug-21 00:15 013 0 gusting 2 19.4
2018-Aug-21 00:10 323 0 gusting 1 20.0
2018-Aug-21 00:05 343 0 gusting 0 20.0
2018-Aug-21 00:00 271 20.6
2018-Aug-20 23:55 271 20.6
2018-Aug-20 23:50 236 21.1
2018-Aug-20 23:45 206 21.7
2018-Aug-20 23:40 206 21.7
2018-Aug-20 23:30 205 21.1
2018-Aug-20 23:25 206 21.1
2018-Aug-20 23:20 146 21.7
2018-Aug-20 23:15 146 22.8
2018-Aug-20 23:10 146 23.3
2018-Aug-20 23:05 120 23.3
2018-Aug-20 22:55 085 0 gusting 1 23.3
2018-Aug-20 22:50 094 0 gusting 1 23.3
2018-Aug-20 22:40 085 0 gusting 1 22.8
2018-Aug-20 22:35 068 1 gusting 2 22.8
2018-Aug-20 22:30 051 2 gusting 2 23.3
2018-Aug-20 22:25 047 0 gusting 3 23.3
2018-Aug-20 22:15 109 2 gusting 6 24.4
2018-Aug-20 22:10 099 3 gusting 5 24.4
2018-Aug-20 22:01 086 3 gusting 5 25.0
2018-Aug-20 21:55 090 2 gusting 6 25.0
2018-Aug-20 21:50 086 3 gusting 6 25.0
2018-Aug-20 21:40 061 2 gusting 4 23.9
2018-Aug-20 21:35 080 2 gusting 2 23.9
2018-Aug-20 21:30 068 1 gusting 4 23.9
2018-Aug-20 21:25 065 2 gusting 4 24.4
2018-Aug-20 21:15 060 3 gusting 5 25.0
2018-Aug-20 21:10 087 3 gusting 6 25.0
2018-Aug-20 21:05 079 4 gusting 6 25.0
2018-Aug-20 21:00 072 4 gusting 6 25.0
2018-Aug-20 20:55 081 4 gusting 6 25.0
2018-Aug-20 20:51 073 3 gusting 5 25.0
2018-Aug-20 20:45 060 3 gusting 6 25.0
2018-Aug-20 20:41 074 3 gusting 6 24.4
2018-Aug-20 20:35 085 4 gusting 5 24.4
2018-Aug-20 20:30 064 3 gusting 5 24.4
2018-Aug-20 20:25 070 3 gusting 4 25.0
2018-Aug-20 20:20 079 3 gusting 5 25.6
2018-Aug-20 20:15 070 4 gusting 6 25.6
2018-Aug-20 20:05 076 3 gusting 5 25.6
2018-Aug-20 19:55 047 3 gusting 5 26.1
2018-Aug-20 19:50 075 4 gusting 6 26.1
2018-Aug-20 19:45 060 5 gusting 6 26.7
2018-Aug-20 19:40 065 5 gusting 6 26.7
2018-Aug-20 19:35 060 5 gusting 6 26.7
2018-Aug-20 19:30 062 3 gusting 6 27.2
2018-Aug-20 19:20 091 4 gusting 6 27.2
2018-Aug-20 19:15 090 4 gusting 6 27.8
2018-Aug-20 19:10 056 4 gusting 5 28.3
2018-Aug-20 19:00 056 5 gusting 6 28.9
2018-Aug-20 18:55 058 5 gusting 6 28.9
2018-Aug-20 18:50 060 5 gusting 6 28.9
2018-Aug-20 18:45 061 4 gusting 6 29.4
2018-Aug-20 18:40 061 5 gusting 6 30.0
2018-Aug-20 18:35 050 5 gusting 7 30.0
2018-Aug-20 18:25 041 6 gusting 7 30.6
2018-Aug-20 18:20 067 6 gusting 6 30.6
2018-Aug-20 18:15 068 4 gusting 8 30.6
2018-Aug-20 18:10 061 6 gusting 8 31.1
2018-Aug-20 18:05 047 7 gusting 11 31.1
2018-Aug-20 18:00 065 7 gusting 11 31.1
2018-Aug-20 17:55 082 9 gusting 12 31.1
2018-Aug-20 17:50 062 7 gusting 10 31.1
2018-Aug-20 17:45 058 6 gusting 8 31.1
2018-Aug-20 17:40 064 4 gusting 9 31.1
2018-Aug-20 17:35 066 6 gusting 10 31.1
2018-Aug-20 17:30 064 3 gusting 10 31.1
2018-Aug-20 17:25 072 6 gusting 12 31.7
2018-Aug-20 17:20 053 5 gusting 9 31.7
2018-Aug-20 17:10 060 6 gusting 9 31.7
2018-Aug-20 17:05 030 3 gusting 7 31.7
2018-Aug-20 17:00 351 5 gusting 8 31.7
2018-Aug-20 16:55 053 6 gusting 9 31.7
2018-Aug-20 16:50 025 4 gusting 6 31.7
2018-Aug-20 16:45 057 1 gusting 7 31.7
2018-Aug-20 16:40 060 5 gusting 7 31.7
2018-Aug-20 16:35 063 5 gusting 13 31.7
2018-Aug-20 16:30 056 8 gusting 12 31.7
2018-Aug-20 16:20 068 2 gusting 9 31.7
2018-Aug-20 16:15 096 2 gusting 7 31.7
2018-Aug-20 16:10 013 5 gusting 8 31.7
2018-Aug-20 16:05 058 6 gusting 9 31.7
2018-Aug-20 15:55 048 2 gusting 10 31.7
2018-Aug-20 15:50 054 8 gusting 13 31.7
2018-Aug-20 15:45 039 3 gusting 13 31.7
2018-Aug-20 15:40 072 4 gusting 7 31.7
2018-Aug-20 15:35 050 6 gusting 11 31.7
2018-Aug-20 15:30 013 7 gusting 12 31.7
2018-Aug-20 15:20 358 3 gusting 11 31.7
2018-Aug-20 15:15 058 9 gusting 11 31.7
2018-Aug-20 15:10 060 6 gusting 12 31.7
2018-Aug-20 15:00 055 6 gusting 12 31.7
2018-Aug-20 14:55 052 11 gusting 12 31.7
2018-Aug-20 14:50 037 0 gusting 9 31.7
2018-Aug-20 14:45 065 6 gusting 9 31.7
2018-Aug-20 14:40 051 3 gusting 9 31.7
2018-Aug-20 14:30 053 2 gusting 10 31.7
2018-Aug-20 14:20 013 9 gusting 11 31.7
2018-Aug-20 14:15 054 4 gusting 11 31.7
2018-Aug-20 14:10 008 7 gusting 10 31.7
2018-Aug-20 14:05 037 0 gusting 10 31.7
2018-Aug-20 13:55 094 4 gusting 9 31.1
2018-Aug-20 13:50 075 4 gusting 15 31.1
2018-Aug-20 13:40 032 5 gusting 9 31.1
2018-Aug-20 13:35 070 3 gusting 13 31.1
2018-Aug-20 13:20 285 1 gusting 9 31.1
2018-Aug-20 13:15 039 3 gusting 15 30.6
2018-Aug-20 13:10 074 5 gusting 15 30.6
2018-Aug-20 13:05 081 5 gusting 9 30.6
2018-Aug-20 12:55 115 4 gusting 9 30.6
2018-Aug-20 12:50 094 6 gusting 11 30.6
2018-Aug-20 12:45 089 6 gusting 12 30.6
2018-Aug-20 12:40 132 4 gusting 10 30.0
2018-Aug-20 12:30 292 2 gusting 9 30.0
2018-Aug-20 12:25 013 5 gusting 9 30.0
2018-Aug-20 12:20 056 5 gusting 9 30.6
2018-Aug-20 12:15 050 6 gusting 10 30.0
2018-Aug-20 12:10 121 5 gusting 7 30.0
2018-Aug-20 12:05 062 4 gusting 10 30.0
2018-Aug-20 12:00 096 5 gusting 10 30.0
2018-Aug-20 11:55 066 3 gusting 10 29.4
2018-Aug-20 11:50 056 5 gusting 10 29.4
2018-Aug-20 11:40 066 6 gusting 9 28.9
2018-Aug-20 11:35 053 5 gusting 9 28.9
2018-Aug-20 11:30 060 2 gusting 6 28.9
2018-Aug-20 11:25 077 5 gusting 10 28.9
2018-Aug-20 11:20 055 5 gusting 10 28.3
2018-Aug-20 11:15 105 4 gusting 10 28.9
2018-Aug-20 11:05 085 6 gusting 9 28.3
2018-Aug-20 11:00 086 5 gusting 9 28.3
2018-Aug-20 10:55 048 6 gusting 9 27.8
2018-Aug-20 10:50 044 2 gusting 9 27.8
2018-Aug-20 10:40 084 3 gusting 7 27.2
2018-Aug-20 10:35 089 4 gusting 9 27.2
2018-Aug-20 10:30 079 5 gusting 9 27.2
2018-Aug-20 10:25 036 6 gusting 11 27.2
2018-Aug-20 10:20 066 6 gusting 11 27.2
2018-Aug-20 10:15 051 4 gusting 7 26.7
2018-Aug-20 10:05 101 5 gusting 9 26.7
2018-Aug-20 09:55 056 6 gusting 9 26.1
2018-Aug-20 09:50 073 5 gusting 7 26.1
2018-Aug-20 09:40 066 5 gusting 8 25.6
2018-Aug-20 09:35 066 3 gusting 7 25.6
2018-Aug-20 09:30 049 5 gusting 8 25.0
2018-Aug-20 09:25 074 5 gusting 7 25.0
2018-Aug-20 09:20 052 5 gusting 8 25.0
2018-Aug-20 09:15 065 5 gusting 7 24.4
2018-Aug-20 09:10 061 5 gusting 7 24.4
2018-Aug-20 09:05 059 5 gusting 6 24.4
2018-Aug-20 08:55 062 6 gusting 9 23.9
2018-Aug-20 08:50 068 5 gusting 8 23.3
2018-Aug-20 08:45 054 6 gusting 8 22.8
2018-Aug-20 08:40 066 6 gusting 8 22.8
2018-Aug-20 08:30 075 5 gusting 8 22.2
2018-Aug-20 08:20 065 6 gusting 8 21.7
2018-Aug-20 08:15 060 6 gusting 8 21.7
2018-Aug-20 08:10 060 7 gusting 8 21.7
2018-Aug-20 08:05 065 6 gusting 7 21.7
2018-Aug-20 08:00 086 4 gusting 7 21.7
2018-Aug-20 07:55 106 6 gusting 8 21.1
2018-Aug-20 07:50 071 5 gusting 8 21.1
2018-Aug-20 07:45 061 6 gusting 8 20.6
2018-Aug-20 07:40 056 6 gusting 8 20.6
2018-Aug-20 07:30 058 6 gusting 10 20.0
2018-Aug-20 07:25 070 7 gusting 10 20.0
2018-Aug-20 07:20 056 5 gusting 7 20.0
2018-Aug-20 07:10 046 5 gusting 7 19.4
2018-Aug-20 07:05 066 6 gusting 8 19.4
2018-Aug-20 07:00 058 6 gusting 8 19.4
2018-Aug-20 06:55 068 7 gusting 8 18.9
2018-Aug-20 06:50 061 6 gusting 7 18.9
2018-Aug-20 06:45 068 5 gusting 8 18.9
2018-Aug-20 06:40 054 6 gusting 7 18.9
2018-Aug-20 06:30 052 2 gusting 6 18.9
2018-Aug-20 06:20 083 3 gusting 5 18.9
2018-Aug-20 06:15 079 3 gusting 5 18.3
2018-Aug-20 06:10 077 4 gusting 6 18.3
2018-Aug-20 06:05 058 4 gusting 6 18.3
2018-Aug-20 06:00 071 4 gusting 6 18.3
2018-Aug-20 05:55 065 3 gusting 5 18.3
2018-Aug-20 05:50 069 2 gusting 6 18.3
2018-Aug-20 05:40 086 5 gusting 7 17.8
2018-Aug-20 05:35 053 4 gusting 7 17.8
2018-Aug-20 05:30 070 5 gusting 6 17.8
2018-Aug-20 05:25 105 6 gusting 6 18.3
2018-Aug-20 05:20 054 5 gusting 7 18.3
2018-Aug-20 05:15 069 6 gusting 8 18.3
2018-Aug-20 05:10 066 6 gusting 7 18.3
2018-Aug-20 05:00 063 6 gusting 6 18.3
2018-Aug-20 04:55 091 5 gusting 7 18.3
2018-Aug-20 04:50 101 6 gusting 9 18.3
2018-Aug-20 04:45 060 6 gusting 9 18.3
2018-Aug-20 04:40 066 6 gusting 8 18.3
2018-Aug-20 04:35 070 6 gusting 6 18.3
2018-Aug-20 04:30 066 5 gusting 6 18.3
2018-Aug-20 04:20 065 4 gusting 6 18.3
2018-Aug-20 04:15 081 5 gusting 6 18.3
2018-Aug-20 04:10 050 4 gusting 6 18.9
2018-Aug-20 04:05 081 4 gusting 6 18.9
2018-Aug-20 04:00 068 5 gusting 6 18.9
2018-Aug-20 03:55 068 5 gusting 7 18.9
2018-Aug-20 03:50 089 6 gusting 7 18.9
2018-Aug-20 03:45 066 6 gusting 7 18.9
2018-Aug-20 03:40 064 5 gusting 8 18.9
2018-Aug-20 03:35 075 5 gusting 8 19.4
2018-Aug-20 03:30 069 6 gusting 7 19.4
2018-Aug-20 03:25 075 6 gusting 8 19.4
2018-Aug-20 03:15 070 5 gusting 7 19.4
2018-Aug-20 03:10 076 4 gusting 7 19.4
2018-Aug-20 03:05 060 5 gusting 7 19.4
2018-Aug-20 03:00 058 6 gusting 8 19.4
2018-Aug-20 02:55 065 5 gusting 6 19.4
2018-Aug-20 02:50 070 5 gusting 6 19.4
2018-Aug-20 02:45 072 5 gusting 6 19.4
2018-Aug-20 02:40 065 5 gusting 6 19.4
2018-Aug-20 02:35 056 3 gusting 5 19.4
2018-Aug-20 02:30 081 3 gusting 5 19.4
2018-Aug-20 02:20 065 3 gusting 5 19.4
2018-Aug-20 02:15 061 3 gusting 5 19.4
2018-Aug-20 02:10 074 3 gusting 5 19.4
2018-Aug-20 02:05 060 3 gusting 5 20.0